Time;durP1;ratioP1;P1;durP2;ratioP2;P2;SDS_P1;SDS_P2;PMS_P1;PMS_P2;Temp;Humidity;BMP_temperature;BMP_pressure;BME280_temperature;BME280_humidity;BME280_pressure;Samples;Min_cycle;Max_cycle;Signal;HPM_P1;HPM_P2
2022/04/06 00:01:20;;;;;;;4.85;2.33;;;9.20;99.90;;;;;;5033093;28;20041;-68
2022/04/06 00:03:45;;;;;;;5.88;2.17;;;9.20;99.90;;;;;;5033008;28;20037;-68
2022/04/06 00:06:11;;;;;;;3.60;2.25;;;9.30;99.90;;;;;;5033011;28;20029;-68
2022/04/06 00:08:37;;;;;;;4.18;2.58;;;9.30;99.90;;;;;;5032345;28;20095;-68
2022/04/06 00:11:03;;;;;;;4.68;2.40;;;9.30;99.90;;;;;;5032958;28;20056;-68
2022/04/06 00:13:29;;;;;;;3.75;2.28;;;9.30;99.90;;;;;;5033004;28;20128;-68
2022/04/06 00:15:55;;;;;;;4.22;2.35;;;9.30;99.90;;;;;;5032670;28;20084;-68
2022/04/06 00:18:21;;;;;;;3.58;2.25;;;9.30;99.90;;;;;;5032632;28;20061;-68
2022/04/06 00:20:47;;;;;;;3.97;2.15;;;9.40;99.90;;;;;;5032523;28;20037;-68
2022/04/06 00:23:14;;;;;;;2.92;2.10;;;9.40;99.90;;;;;;5032437;28;20033;-68
2022/04/06 00:25:40;;;;;;;2.83;2.42;;;9.40;99.90;;;;;;5032680;28;20057;-67
2022/04/06 00:28:06;;;;;;;2.92;2.10;;;9.40;99.90;;;;;;5032826;28;20041;-68
2022/04/06 00:30:32;;;;;;;2.63;2.10;;;9.40;99.90;;;;;;5032858;28;20111;-68
2022/04/06 00:32:57;;;;;;;4.97;2.75;;;9.30;99.90;;;;;;5032700;28;20123;-68
2022/04/06 00:35:29;;;;;;;5.63;2.47;;;9.30;99.90;;;;;;5032669;28;20045;-68
2022/04/06 00:38:00;;;;;;;3.42;2.25;;;9.30;99.90;;;;;;5032673;28;20049;-67
2022/04/06 00:40:26;;;;;;;4.22;2.50;;;9.30;99.90;;;;;;5032714;28;20041;-68
2022/04/06 00:42:53;;;;;;;4.30;2.35;;;9.30;99.90;;;;;;5032839;28;20041;-68
2022/04/06 00:45:20;;;;;;;3.92;2.50;;;9.30;99.90;;;;;;5032650;28;20132;-68
2022/04/06 00:47:46;;;;;;;3.78;2.35;;;9.20;99.90;;;;;;5032873;28;20125;-67
2022/04/06 00:50:12;;;;;;;5.35;3.30;;;9.20;99.90;;;;;;5032573;28;20084;-68
2022/04/06 00:52:39;;;;;;;5.43;2.47;;;9.20;99.90;;;;;;5032625;28;20064;-68
2022/04/06 00:55:06;;;;;;;4.20;2.13;;;9.20;99.90;;;;;;5032513;28;20050;-68
2022/04/06 00:57:33;;;;;;;2.95;2.20;;;9.20;99.90;;;;;;5032204;28;20116;-68
2022/04/06 00:59:58;;;;;;;7.22;2.95;;;9.20;99.90;;;;;;5032277;28;20041;-67
2022/04/06 01:02:25;;;;;;;3.03;2.10;;;9.10;99.90;;;;;;5032629;28;20045;-67
2022/04/06 01:04:51;;;;;;;3.88;2.42;;;9.10;99.90;;;;;;5032626;28;20382;-68
2022/04/06 01:07:19;;;;;;;5.05;2.22;;;9.10;99.90;;;;;;5032510;28;20052;-68
2022/04/06 01:09:46;;;;;;;4.55;2.38;;;9.00;99.90;;;;;;5032749;28;20046;-67
2022/04/06 01:12:13;;;;;;;3.28;2.03;;;9.10;99.90;;;;;;5032398;28;20049;-68
2022/04/06 01:14:39;;;;;;;5.28;2.58;;;9.10;99.90;;;;;;5032250;28;20037;-68
2022/04/06 01:17:07;;;;;;;3.17;2.05;;;9.00;99.90;;;;;;5032227;28;20408;-68
2022/04/06 01:19:39;;;;;;;5.82;2.22;;;9.00;99.90;;;;;;5032907;28;20047;-68
2022/04/06 01:22:16;;;;;;;4.22;2.63;;;8.90;99.90;;;;;;5035904;28;20125;-68
2022/04/06 01:24:43;;;;;;;4.95;2.95;;;9.00;99.90;;;;;;5035925;28;20531;-68
2022/04/06 01:27:09;;;;;;;4.38;2.90;;;9.00;99.90;;;;;;5035343;28;20412;-68
2022/04/06 01:29:35;;;;;;;4.30;2.35;;;9.00;99.90;;;;;;5035467;28;20038;-67
2022/04/06 01:32:22;;;;;;;3.13;2.25;;;9.10;99.90;;;;;;5035589;28;20104;-68
2022/04/06 01:34:49;;;;;;;4.03;2.40;;;9.00;99.90;;;;;;5035443;28;20079;-68
2022/04/06 01:37:16;;;;;;;3.72;2.55;;;9.00;99.90;;;;;;5035396;28;20081;-68
2022/04/06 01:39:45;;;;;;;6.53;2.75;;;9.00;99.90;;;;;;5035444;28;20405;-68
2022/04/06 01:42:15;;;;;;;5.30;3.17;;;9.10;99.90;;;;;;5034655;28;20528;-67
2022/04/06 01:44:44;;;;;;;5.20;3.20;;;9.10;99.90;;;;;;5032999;28;20045;-68
2022/04/06 01:47:11;;;;;;;6.68;3.35;;;9.00;99.90;;;;;;5033841;28;20094;-68
2022/04/06 01:52:21;;;;;;;4.20;2.90;;;8.90;99.90;;;;;;5034928;28;20087;-68
2022/04/06 01:54:53;;;;;;;4.05;2.15;;;8.90;99.90;;;;;;5035067;28;20029;-68
2022/04/06 01:57:20;;;;;;;3.13;2.10;;;8.90;99.90;;;;;;5034033;28;20079;-68
2022/04/06 01:59:47;;;;;;;2.70;2.20;;;8.90;99.90;;;;;;5035578;28;20041;-68
2022/04/06 02:02:17;;;;;;;3.58;2.17;;;8.90;99.90;;;;;;5034693;28;20049;-68
2022/04/06 02:04:44;;;;;;;2.67;2.03;;;8.80;99.90;;;;;;5037626;28;20041;-67
2022/04/06 02:07:11;;;;;;;2.45;2.08;;;8.80;99.90;;;;;;5035153;28;20120;-68
2022/04/06 02:09:38;;;;;;;2.50;2.13;;;8.80;99.90;;;;;;5035051;28;20033;-68
2022/04/06 02:12:06;;;;;;;3.47;1.90;;;8.80;99.90;;;;;;5034414;28;20045;-68
2022/04/06 02:14:33;;;;;;;2.97;1.98;;;8.80;99.90;;;;;;5034083;28;20037;-67
2022/04/06 02:16:59;;;;;;;4.90;1.80;;;8.80;99.90;;;;;;5034278;28;20052;-68
2022/04/06 02:19:25;;;;;;;3.55;1.98;;;8.80;99.90;;;;;;5034121;28;20037;-68
2022/04/06 02:21:50;;;;;;;2.15;1.63;;;8.80;99.90;;;;;;5036557;28;20764;-67
2022/04/06 02:24:18;;;;;;;2.85;1.67;;;8.90;99.90;;;;;;5034013;28;20072;-68
2022/04/06 02:26:44;;;;;;;2.63;1.88;;;9.10;99.90;;;;;;5034464;28;20048;-68
2022/04/06 02:29:10;;;;;;;2.30;1.52;;;9.10;99.90;;;;;;5033329;28;20390;-68
2022/04/06 02:31:36;;;;;;;2.30;1.50;;;9.00;99.90;;;;;;5033750;28;20048;-68
2022/04/06 02:34:01;;;;;;;2.90;2.00;;;8.90;99.90;;;;;;5034284;28;20037;-67
2022/04/06 02:36:27;;;;;;;3.58;1.80;;;8.90;99.90;;;;;;5032716;28;20052;-68
2022/04/06 02:38:53;;;;;;;2.47;1.85;;;8.80;99.90;;;;;;5032961;28;20421;-67
2022/04/06 02:41:19;;;;;;;2.97;1.77;;;8.80;99.90;;;;;;5033694;28;20560;-69
2022/04/06 02:43:44;;;;;;;3.78;1.50;;;8.80;99.90;;;;;;5033486;28;20489;-68
2022/04/06 02:46:10;;;;;;;2.38;1.40;;;8.70;99.90;;;;;;5033488;28;20156;-68
2022/04/06 02:48:36;;;;;;;2.08;1.30;;;8.70;99.90;;;;;;5038585;28;20504;-68
2022/04/06 02:51:02;;;;;;;2.83;1.30;;;8.80;99.90;;;;;;5052570;28;20094;-68
2022/04/06 02:53:27;;;;;;;3.92;1.50;;;8.80;99.90;;;;;;5053643;28;20114;-68
2022/04/06 02:55:53;;;;;;;2.40;1.10;;;8.80;99.90;;;;;;5053696;28;20049;-68
2022/04/06 02:58:19;;;;;;;2.83;1.48;;;8.90;99.90;;;;;;5053633;28;20516;-67
2022/04/06 03:00:45;;;;;;;4.28;1.23;;;8.90;99.90;;;;;;5053665;28;20528;-67
2022/04/06 03:03:11;;;;;;;2.13;1.45;;;8.90;99.90;;;;;;5053723;28;20067;-68
2022/04/06 03:05:36;;;;;;;1.88;1.40;;;8.90;99.90;;;;;;5054100;28;20044;-68
2022/04/06 03:08:02;;;;;;;2.67;1.73;;;8.80;99.90;;;;;;5053910;28;20518;-69
2022/04/06 03:10:28;;;;;;;2.65;1.85;;;8.80;99.90;;;;;;5053916;28;20487;-68
2022/04/06 03:12:54;;;;;;;2.55;1.75;;;8.80;99.90;;;;;;5053938;28;20128;-69
2022/04/06 03:15:20;;;;;;;1.35;1.10;;;8.80;99.90;;;;;;5053623;28;20467;-69
2022/04/06 03:17:46;;;;;;;2.35;1.25;;;8.70;99.90;;;;;;5053545;28;20063;-68
2022/04/06 03:20:14;;;;;;;1.58;0.90;;;8.60;99.90;;;;;;5053503;28;20487;-68
2022/04/06 03:22:41;;;;;;;1.88;0.77;;;8.70;99.90;;;;;;5053679;28;20043;-68
2022/04/06 03:25:08;;;;;;;1.58;0.95;;;8.70;99.90;;;;;;5053688;28;20041;-68
2022/04/06 03:27:35;;;;;;;1.30;0.80;;;8.70;99.90;;;;;;5053966;28;20039;-68
2022/04/06 03:30:05;;;;;;;0.93;0.68;;;8.70;99.90;;;;;;5053531;28;20033;-68
2022/04/06 03:32:31;;;;;;;0.90;0.60;;;8.70;99.90;;;;;;5053524;28;20037;-68
2022/04/06 03:34:57;;;;;;;1.35;0.68;;;8.70;99.90;;;;;;5053384;28;20044;-68
2022/04/06 03:37:24;;;;;;;0.50;0.43;;;8.70;99.90;;;;;;5053465;28;20048;-68
2022/04/06 03:39:50;;;;;;;0.55;0.40;;;8.60;99.90;;;;;;5053540;28;20052;-68
2022/04/06 03:42:16;;;;;;;1.45;0.55;;;8.60;99.90;;;;;;5053313;28;20029;-68
2022/04/06 03:44:43;;;;;;;1.50;0.60;;;8.60;99.90;;;;;;5053292;28;20067;-68
2022/04/06 03:47:08;;;;;;;0.70;0.45;;;8.60;99.90;;;;;;5053187;28;20033;-68
2022/04/06 03:49:34;;;;;;;0.52;0.52;;;8.60;99.90;;;;;;5053030;28;20044;-67
2022/04/06 03:52:00;;;;;;;2.05;0.88;;;8.70;99.90;;;;;;5052922;28;20071;-68
2022/04/06 03:54:26;;;;;;;1.58;0.50;;;8.60;99.90;;;;;;5052786;28;20041;-68
2022/04/06 03:56:51;;;;;;;1.55;0.50;;;8.50;99.90;;;;;;5053037;28;20048;-68
2022/04/06 03:59:18;;;;;;;0.80;0.70;;;8.50;99.90;;;;;;5053067;28;20043;-68
2022/04/06 04:01:44;;;;;;;0.73;0.50;;;8.50;99.90;;;;;;5052980;28;20041;-68
2022/04/06 04:04:10;;;;;;;3.78;0.57;;;8.60;99.90;;;;;;5053049;28;20047;-68
2022/04/06 04:06:36;;;;;;;0.70;0.65;;;8.60;99.90;;;;;;5052010;28;20037;-68
2022/04/06 04:09:03;;;;;;;1.95;0.75;;;8.60;99.90;;;;;;5032912;28;20053;-69
2022/04/06 04:11:29;;;;;;;0.80;0.60;;;8.60;99.90;;;;;;5032928;28;20041;-68
2022/04/06 04:13:56;;;;;;;0.90;0.70;;;8.60;99.90;;;;;;5032866;28;20132;-68
2022/04/06 04:16:22;;;;;;;0.55;0.52;;;8.60;99.90;;;;;;5033104;28;20397;-69
2022/04/06 04:18:47;;;;;;;0.98;0.60;;;8.70;99.90;;;;;;5033130;28;20041;-69
2022/04/06 04:21:34;;;;;;;0.60;0.60;;;8.70;99.90;;;;;;5032858;28;20041;-68
2022/04/06 04:24:08;;;;;;;0.40;0.40;;;8.70;99.90;;;;;;5034835;28;20445;-68
2022/04/06 04:26:36;;;;;;;1.08;0.77;;;8.80;99.90;;;;;;5052728;28;20041;-69
2022/04/06 04:29:07;;;;;;;0.82;0.60;;;8.80;99.90;;;;;;5052468;28;20049;-68
2022/04/06 04:31:33;;;;;;;0.60;0.50;;;8.90;99.90;;;;;;5052674;28;20419;-68
2022/04/06 04:33:59;;;;;;;1.13;0.85;;;8.90;99.90;;;;;;5052637;28;20048;-68
2022/04/06 04:36:25;;;;;;;6.80;3.72;;;8.80;99.90;;;;;;5052563;28;20504;-68
2022/04/06 04:38:51;;;;;;;8.32;4.35;;;8.80;99.90;;;;;;5038044;28;20047;-69
2022/04/06 04:41:17;;;;;;;16.25;9.95;;;8.80;99.90;;;;;;5032750;28;20375;-69
2022/04/06 04:43:43;;;;;;;12.63;8.23;;;8.80;99.90;;;;;;5032839;28;20042;-69
2022/04/06 04:46:09;;;;;;;11.85;7.38;;;8.80;99.90;;;;;;5032605;28;20041;-68
2022/04/06 04:48:35;;;;;;;9.75;6.60;;;8.80;99.90;;;;;;5038315;28;20033;-67
2022/04/06 04:51:01;;;;;;;6.88;4.90;;;8.80;99.90;;;;;;5050965;28;20069;-68
2022/04/06 04:53:27;;;;;;;5.20;4.13;;;8.90;99.90;;;;;;5052358;28;20060;-68
2022/04/06 04:55:56;;;;;;;3.88;3.08;;;8.80;99.90;;;;;;5055228;28;20453;-68
2022/04/06 04:58:21;;;;;;;5.28;2.53;;;8.80;99.90;;;;;;5056468;28;20128;-68
2022/04/06 05:00:47;;;;;;;4.05;2.65;;;8.80;99.90;;;;;;5055134;28;20563;-68
2022/04/06 05:03:13;;;;;;;5.90;2.70;;;8.80;99.90;;;;;;5055638;28;20496;-68
2022/04/06 05:05:42;;;;;;;3.08;2.03;;;8.80;99.90;;;;;;5056338;28;20578;-68
2022/04/06 05:08:08;;;;;;;2.15;1.42;;;8.90;99.90;;;;;;5056376;28;20439;-68
2022/04/06 05:10:34;;;;;;;3.35;1.92;;;8.90;99.90;;;;;;5056316;28;20606;-68
2022/04/06 05:12:59;;;;;;;2.63;1.58;;;8.90;99.90;;;;;;5056208;28;20036;-67
2022/04/06 05:15:25;;;;;;;3.03;1.70;;;8.80;99.90;;;;;;5056071;28;20060;-68
2022/04/06 05:17:51;;;;;;;2.20;1.45;;;8.80;99.90;;;;;;5056123;28;20082;-68
2022/04/06 05:20:17;;;;;;;2.17;1.50;;;8.80;99.90;;;;;;5055993;28;20518;-68
2022/04/06 05:22:43;;;;;;;5.85;2.97;;;8.70;99.90;;;;;;5056087;28;20094;-68
2022/04/06 05:25:09;;;;;;;4.55;3.55;;;8.70;99.90;;;;;;5056044;28;20490;-68
2022/04/06 05:27:48;;;;;;;4.70;3.10;;;8.70;99.90;;;;;;5038082;28;20527;-67
2022/04/06 05:30:16;;;;;;;6.15;2.80;;;8.70;99.90;;;;;;5055872;28;20056;-68
2022/04/06 05:32:42;;;;;;;2.58;1.98;;;8.70;99.90;;;;;;5054941;28;20048;-68
2022/04/06 05:35:10;;;;;;;3.63;1.92;;;8.70;99.90;;;;;;5037812;28;20419;-68
2022/04/06 05:37:43;;;;;;;3.58;2.03;;;8.70;99.90;;;;;;5054409;28;20059;-67
2022/04/06 05:40:11;;;;;;;2.45;1.23;;;8.70;99.90;;;;;;5055711;28;20033;-68
2022/04/06 05:42:38;;;;;;;2.10;1.67;;;8.70;99.90;;;;;;5055555;28;20474;-68
2022/04/06 05:45:06;;;;;;;2.85;1.83;;;8.70;99.90;;;;;;5055632;28;20094;-68
2022/04/06 05:47:32;;;;;;;2.45;2.03;;;8.70;99.90;;;;;;5032916;28;20132;-68
2022/04/06 05:49:58;;;;;;;2.95;1.90;;;8.80;99.90;;;;;;5033707;28;20444;-67
2022/04/06 05:52:24;;;;;;;3.30;2.13;;;8.80;99.90;;;;;;5017721;28;20043;-68
2022/04/06 05:54:51;;;;;;;3.53;2.33;;;8.80;99.90;;;;;;5035369;28;20041;-68
2022/04/06 05:57:17;;;;;;;2.67;1.75;;;8.80;99.90;;;;;;5035330;28;20075;-67
2022/04/06 05:59:44;;;;;;;3.45;2.10;;;8.80;99.90;;;;;;5035289;28;20037;-68
2022/04/06 06:02:11;;;;;;;2.58;2.20;;;9.10;99.90;;;;;;5034989;28;20136;-67
2022/04/06 06:04:38;;;;;;;3.88;2.50;;;9.00;99.90;;;;;;5023092;28;20124;-67
2022/04/06 06:07:05;;;;;;;4.45;2.38;;;9.00;99.90;;;;;;5029515;28;20072;-68
2022/04/06 06:09:31;;;;;;;2.95;2.40;;;8.90;99.90;;;;;;5031417;28;20041;-68
2022/04/06 06:11:57;;;;;;;4.03;2.72;;;8.90;99.90;;;;;;5015153;28;20102;-68
2022/04/06 06:14:22;;;;;;;3.13;2.30;;;8.90;99.90;;;;;;5032496;28;20033;-68
2022/04/06 06:16:49;;;;;;;3.08;2.50;;;8.90;99.90;;;;;;5032435;28;20053;-68
2022/04/06 06:19:16;;;;;;;3.42;1.85;;;8.90;99.90;;;;;;5032519;28;20071;-67
2022/04/06 06:21:42;;;;;;;28.48;20.98;;;8.90;99.90;;;;;;5029169;28;20485;-67
2022/04/06 06:24:07;;;;;;;13.45;11.32;;;8.90;99.90;;;;;;5031910;28;20063;-68
2022/04/06 06:26:35;;;;;;;9.90;8.13;;;8.90;99.90;;;;;;5014873;28;20045;-68
2022/04/06 06:29:01;;;;;;;14.90;10.55;;;8.90;99.90;;;;;;5034606;28;20179;-66
2022/04/06 06:31:31;;;;;;;10.70;8.15;;;9.00;99.90;;;;;;5034673;28;20033;-68
2022/04/06 06:33:57;;;;;;;13.43;5.30;;;9.00;99.90;;;;;;5034694;28;20053;-68
2022/04/06 06:36:23;;;;;;;13.15;8.48;;;9.20;99.90;;;;;;5034628;28;20049;-67
2022/04/06 06:38:52;;;;;;;23.48;11.32;;;9.70;99.90;;;;;;5042282;28;20588;-68
2022/04/06 06:41:19;;;;;;;35.92;19.23;;;9.90;99.90;;;;;;5052362;28;20044;-68
2022/04/06 06:43:48;;;;;;;6.75;3.15;;;10.00;99.90;;;;;;5053379;28;20039;-68
2022/04/06 06:46:14;;;;;;;2.85;1.98;;;10.00;99.90;;;;;;5054171;28;20045;-68
2022/04/06 06:48:40;;;;;;;2.60;2.15;;;9.40;99.90;;;;;;5029044;28;20044;-68
2022/04/06 06:51:06;;;;;;;4.68;2.00;;;9.10;99.90;;;;;;5030989;28;20041;-68
2022/04/06 06:53:32;;;;;;;2.58;1.92;;;9.10;99.90;;;;;;5031732;28;20048;-68
2022/04/06 06:55:58;;;;;;;6.00;4.47;;;9.10;99.90;;;;;;5032294;28;20057;-68
2022/04/06 06:58:23;;;;;;;5.20;2.70;;;9.30;99.90;;;;;;5032408;28;20037;-69
2022/04/06 07:00:49;;;;;;;5.32;3.45;;;9.20;99.90;;;;;;5031892;28;20041;-68
2022/04/06 07:03:15;;;;;;;5.25;2.30;;;9.20;99.90;;;;;;5031350;28;20129;-67
2022/04/06 07:05:41;;;;;;;4.15;3.20;;;9.30;99.90;;;;;;5031919;28;20489;-68
2022/04/06 07:08:07;;;;;;;4.05;3.58;;;9.30;99.90;;;;;;5031804;28;20046;-68
2022/04/06 07:10:33;;;;;;;4.53;3.67;;;9.40;99.90;;;;;;5031609;28;20041;-68
2022/04/06 07:12:58;;;;;;;4.30;3.83;;;9.40;99.90;;;;;;5031075;28;20045;-68
2022/04/06 07:15:25;;;;;;;3.97;2.88;;;9.40;99.90;;;;;;5032249;28;20063;-69
2022/04/06 07:17:55;;;;;;;2.97;2.47;;;9.50;99.90;;;;;;5030955;28;20061;-69
2022/04/06 07:20:24;;;;;;;2.63;2.03;;;9.50;99.90;;;;;;5031238;28;20392;-68
2022/04/06 07:22:53;;;;;;;3.05;1.85;;;9.50;99.90;;;;;;5031067;28;20041;-69
2022/04/06 07:25:20;;;;;;;2.50;2.10;;;9.60;99.90;;;;;;5030754;28;20037;-69
2022/04/06 07:27:45;;;;;;;2.83;2.20;;;9.70;99.90;;;;;;5031585;28;20045;-68
2022/04/06 07:30:13;;;;;;;10.07;7.22;;;9.80;99.90;;;;;;5031298;28;20409;-69
2022/04/06 07:32:39;;;;;;;12.02;5.68;;;9.80;99.90;;;;;;5030886;28;20037;-69
2022/04/06 07:35:06;;;;;;;4.50;3.63;;;9.80;99.90;;;;;;5031245;28;20053;-69
2022/04/06 07:37:43;;;;;;;4.68;2.65;;;9.90;99.90;;;;;;5031518;28;20053;-69
2022/04/06 07:40:11;;;;;;;6.90;4.88;;;9.80;99.90;;;;;;5030977;28;20041;-69
2022/04/06 07:42:38;;;;;;;3.08;2.63;;;9.80;99.90;;;;;;5030709;28;20382;-68
2022/04/06 07:45:07;;;;;;;3.90;2.47;;;9.70;99.90;;;;;;5031019;28;20045;-68
2022/04/06 07:47:33;;;;;;;7.47;5.70;;;9.70;99.90;;;;;;5030899;28;20540;-68
2022/04/06 07:50:00;;;;;;;4.18;3.10;;;9.80;99.90;;;;;;5031080;28;20045;-68
2022/04/06 07:52:27;;;;;;;6.30;3.92;;;9.90;99.90;;;;;;5030859;28;20052;-69
2022/04/06 07:54:53;;;;;;;4.68;2.45;;;10.00;99.90;;;;;;5015285;28;20454;-69
2022/04/06 07:57:22;;;;;;;3.72;2.90;;;10.30;99.90;;;;;;4987897;28;20464;-68
2022/04/06 07:59:48;;;;;;;4.25;3.58;;;10.50;99.90;;;;;;5011446;28;20042;-69
2022/04/06 08:02:14;;;;;;;2.92;1.63;;;10.80;99.90;;;;;;5012223;28;20103;-69
2022/04/06 08:04:40;;;;;;;2.85;1.65;;;10.80;99.90;;;;;;5013409;28;20041;-69
2022/04/06 08:07:06;;;;;;;2.70;1.42;;;10.80;99.90;;;;;;5011042;28;20042;-69
2022/04/06 08:09:31;;;;;;;2.95;1.33;;;10.80;99.90;;;;;;5011374;28;20037;-69
2022/04/06 08:11:57;;;;;;;3.38;1.55;;;10.90;99.90;;;;;;5011222;28;20038;-69
2022/04/06 08:14:23;;;;;;;3.40;2.00;;;11.00;99.90;;;;;;5010585;28;20156;-69
2022/04/06 08:16:49;;;;;;;2.95;1.08;;;11.10;99.90;;;;;;5011377;28;20057;-69
2022/04/06 08:19:15;;;;;;;2.38;1.40;;;11.30;99.90;;;;;;4993525;28;20037;-69
2022/04/06 08:21:40;;;;;;;1.20;1.00;;;11.30;99.90;;;;;;5010603;28;20091;-69
2022/04/06 08:24:07;;;;;;;1.38;1.17;;;11.20;99.90;;;;;;5013208;28;20029;-69
2022/04/06 08:26:34;;;;;;;3.67;1.60;;;11.40;99.90;;;;;;5011104;28;20532;-69
2022/04/06 08:28:59;;;;;;;2.53;0.80;;;11.60;99.90;;;;;;5011294;28;20045;-69
2022/04/06 08:31:25;;;;;;;1.17;1.00;;;11.20;99.90;;;;;;4997657;28;20041;-69
2022/04/06 08:33:51;;;;;;;1.88;0.90;;;11.50;99.90;;;;;;5017283;28;20053;-70
2022/04/06 08:36:17;;;;;;;1.42;0.93;;;11.60;99.90;;;;;;5016952;28;20416;-68
2022/04/06 08:38:43;;;;;;;1.10;0.70;;;11.50;99.90;;;;;;5019702;28;20033;-69
2022/04/06 08:41:09;;;;;;;1.83;1.00;;;11.40;99.90;;;;;;5017248;28;20094;-69
2022/04/06 08:43:35;;;;;;;3.42;2.35;;;11.40;99.90;;;;;;5016821;28;20529;-69
2022/04/06 08:46:02;;;;;;;2.83;1.77;;;11.50;99.90;;;;;;5016956;28;20074;-69
2022/04/06 08:48:29;;;;;;;1.70;1.38;;;11.50;99.90;;;;;;5021884;28;20037;-68
2022/04/06 08:51:00;;;;;;;1.90;1.65;;;11.30;99.90;;;;;;5036641;28;20039;-69
2022/04/06 08:53:26;;;;;;;1.85;0.80;;;11.50;99.90;;;;;;5036787;28;20524;-69
2022/04/06 08:55:51;;;;;;;1.60;1.00;;;11.40;99.90;;;;;;5036437;28;20043;-69
2022/04/06 08:58:18;;;;;;;1.73;1.27;;;11.30;99.90;;;;;;5028912;28;20045;-69
2022/04/06 09:00:44;;;;;;;7.50;1.88;;;11.50;99.90;;;;;;5029585;28;20060;-69
2022/04/06 09:03:11;;;;;;;5.95;2.88;;;11.50;99.90;;;;;;5033880;28;20060;-69
2022/04/06 09:05:37;;;;;;;14.07;5.57;;;11.40;99.90;;;;;;5034127;28;20123;-69
2022/04/06 09:08:04;;;;;;;6.97;2.72;;;11.40;99.90;;;;;;5033417;28;20037;-68
2022/04/06 09:10:35;;;;;;;1.10;0.68;;;11.30;99.90;;;;;;5033892;28;20520;-69
2022/04/06 09:13:21;;;;;;;0.52;0.52;;;11.20;99.90;;;;;;5033339;28;20528;-69
2022/04/06 09:15:47;;;;;;;2.15;0.70;;;11.30;99.90;;;;;;5033784;28;20065;-68
2022/04/06 09:18:13;;;;;;;0.65;0.60;;;11.70;99.90;;;;;;5033627;28;20144;-69
2022/04/06 09:20:40;;;;;;;1.48;0.50;;;11.30;99.90;;;;;;5033517;28;20041;-68
2022/04/06 09:23:07;;;;;;;1.25;0.70;;;10.70;99.90;;;;;;5033405;28;20045;-68
2022/04/06 09:25:38;;;;;;;1.13;0.40;;;10.50;99.90;;;;;;5033812;28;20044;-68
2022/04/06 09:28:08;;;;;;;2.08;0.60;;;10.40;99.90;;;;;;5033261;28;20041;-68
2022/04/06 09:30:37;;;;;;;0.73;0.43;;;10.40;99.90;;;;;;5031155;28;20064;-68
2022/04/06 09:33:03;;;;;;;1.05;0.80;;;10.50;99.90;;;;;;5032984;28;20033;-68
2022/04/06 09:35:32;;;;;;;0.93;0.60;;;10.70;99.90;;;;;;5033160;28;20049;-68
2022/04/06 09:38:14;;;;;;;1.88;0.60;;;10.80;99.90;;;;;;5033269;28;20033;-68
2022/04/06 09:40:40;;;;;;;0.80;0.55;;;10.70;99.90;;;;;;5033329;28;20044;-68
2022/04/06 09:43:08;;;;;;;0.73;0.57;;;10.70;99.90;;;;;;5032717;28;20041;-69
2022/04/06 09:48:18;;;;;;;1.65;0.98;;;11.00;99.90;;;;;;5033087;28;20154;-69
2022/04/06 09:50:57;;;;;;;0.88;0.88;;;11.10;99.90;;;;;;5022987;28;20156;-68
2022/04/06 09:53:30;;;;;;;1.55;0.50;;;11.00;99.90;;;;;;5029129;28;20036;-68
2022/04/06 09:55:57;;;;;;;1.10;1.00;;;10.90;99.90;;;;;;5034685;28;20069;-68
2022/04/06 09:58:23;;;;;;;1.40;0.70;;;11.00;99.90;;;;;;5035410;28;20064;-69
2022/04/06 10:00:51;;;;;;;1.90;1.33;;;10.90;99.90;;;;;;5034406;28;20760;-69
2022/04/06 10:03:19;;;;;;;1.77;0.88;;;11.20;99.90;;;;;;5032883;28;20124;-69
2022/04/06 10:05:49;;;;;;;0.60;0.50;;;11.20;99.90;;;;;;5033320;28;20077;-68
2022/04/06 10:08:17;;;;;;;1.25;1.05;;;11.30;99.90;;;;;;5033172;28;20056;-69
2022/04/06 10:10:45;;;;;;;0.75;0.55;;;11.30;99.90;;;;;;5033063;28;20045;-68
2022/04/06 10:13:11;;;;;;;1.77;0.95;;;11.30;99.90;;;;;;5032473;28;20042;-69
2022/04/06 10:15:38;;;;;;;2.85;0.80;;;11.60;99.90;;;;;;5034040;28;20052;-69
2022/04/06 10:18:05;;;;;;;2.97;1.63;;;;;;;;;;5033054;28;20041;-68
2022/04/06 10:20:51;;;;;;;1.23;0.50;;;12.00;99.90;;;;;;5033034;28;20049;-69
2022/04/06 10:23:35;;;;;;;0.73;0.52;;;11.90;99.90;;;;;;5034555;28;20503;-69
2022/04/06 10:26:04;;;;;;;1.85;0.52;;;11.90;99.90;;;;;;5032118;28;20069;-68
2022/04/06 10:28:38;;;;;;;1.45;0.60;;;12.00;99.90;;;;;;5033040;28;20124;-69
2022/04/06 10:31:16;;;;;;;0.82;0.40;;;12.00;99.90;;;;;;5034859;28;20091;-68
2022/04/06 10:33:43;;;;;;;1.52;1.25;;;12.10;99.90;;;;;;5034816;28;20044;-68
2022/04/06 10:36:16;;;;;;;3.95;1.10;;;12.10;99.90;;;;;;5037569;28;20045;-68
2022/04/06 10:39:08;;;;;;;4.13;1.50;;;12.10;99.90;;;;;;5034775;28;20456;-68
2022/04/06 10:41:38;;;;;;;1.80;0.98;;;12.10;99.90;;;;;;5034488;28;20118;-68
2022/04/06 10:44:04;;;;;;;2.65;1.90;;;12.00;99.90;;;;;;5034399;28;20045;-68
2022/04/06 10:46:40;;;;;;;2.47;1.60;;;11.90;99.90;;;;;;5034317;28;20378;-68
2022/04/06 10:49:06;;;;;;;2.65;1.05;;;12.00;99.90;;;;;;5044609;28;20109;-68
2022/04/06 10:51:39;;;;;;;2.67;2.00;;;12.10;99.90;;;;;;5054173;28;20437;-68
2022/04/06 10:54:14;;;;;;;50.63;16.17;;;12.20;99.90;;;;;;5053733;28;20455;-68
2022/04/06 10:56:49;;;;;;;16.30;6.53;;;12.20;99.90;;;;;;5054173;28;20056;-68
2022/04/06 10:59:26;;;;;;;59.88;17.05;;;12.00;99.90;;;;;;5054065;28;20204;-68
2022/04/06 11:02:11;;;;;;;3.03;1.30;;;12.10;99.90;;;;;;5053982;28;20116;-68
2022/04/06 11:04:40;;;;;;;8.73;3.63;;;12.00;99.90;;;;;;5053900;28;20124;-69
2022/04/06 11:07:08;;;;;;;9.40;3.35;;;12.10;99.90;;;;;;5054076;28;20373;-68
2022/04/06 11:12:27;;;;;;;2.03;1.10;;;12.20;99.90;;;;;;5053949;28;20035;-68
2022/04/06 11:14:53;;;;;;;1.40;0.60;;;12.10;99.90;;;;;;5053780;28;20041;-67
2022/04/06 11:17:32;;;;;;;1.85;1.00;;;12.00;99.90;;;;;;5053810;28;20087;-69
2022/04/06 11:19:59;;;;;;;2.00;1.35;;;12.00;99.90;;;;;;5053765;28;20574;-68
2022/04/06 11:22:25;;;;;;;6.07;1.08;;;12.00;99.90;;;;;;5053744;28;20041;-68
2022/04/06 11:24:51;;;;;;;5.60;2.53;;;12.00;99.90;;;;;;5053674;28;20119;-68
2022/04/06 11:27:33;;;;;;;1.85;1.50;;;12.10;99.90;;;;;;5053582;28;20071;-68
2022/04/06 11:30:00;;;;;;;2.20;1.15;;;12.10;99.90;;;;;;5053838;28;20389;-68
2022/04/06 11:32:26;;;;;;;2.28;1.02;;;12.10;99.90;;;;;;5041157;28;20124;-68
2022/04/06 11:35:05;;;;;;;1.15;0.90;;;12.10;99.90;;;;;;5027497;28;20133;-68
2022/04/06 11:37:32;;;;;;;2.67;1.20;;;12.10;99.90;;;;;;5031193;28;20041;-68
2022/04/06 11:40:01;;;;;;;2.47;0.95;;;11.90;99.90;;;;;;5031215;28;20037;-67
2022/04/06 11:42:27;;;;;;;6.15;2.55;;;11.90;99.90;;;;;;5031470;28;20103;-68
2022/04/06 11:44:54;;;;;;;1.83;1.00;;;11.70;99.90;;;;;;5031697;28;20128;-69
2022/04/06 11:47:38;;;;;;;1.25;1.15;;;11.60;99.90;;;;;;5031074;28;20041;-68
2022/04/06 11:50:11;;;;;;;1.33;1.17;;;11.80;99.90;;;;;;5025798;28;20107;-68
2022/04/06 11:52:40;;;;;;;2.75;1.73;;;11.90;99.90;;;;;;5022238;28;20128;-68
2022/04/06 11:55:10;;;;;;;2.35;1.20;;;11.90;99.90;;;;;;5030910;28;20044;-68
2022/04/06 11:57:42;;;;;;;1.92;1.10;;;12.00;99.90;;;;;;5031035;28;20049;-68
2022/04/06 12:00:11;;;;;;;2.35;1.40;;;11.90;99.90;;;;;;5013350;28;20041;-68
2022/04/06 12:02:54;;;;;;;2.58;1.08;;;11.70;99.90;;;;;;5029876;28;20037;-68
2022/04/06 12:05:24;;;;;;;3.28;2.00;;;11.80;99.90;;;;;;5030614;28;20033;-68
2022/04/06 12:08:13;;;;;;;2.85;1.58;;;11.90;99.90;;;;;;5032786;28;20091;-68
2022/04/06 12:10:53;;;;;;;2.85;1.35;;;11.90;99.90;;;;;;5031380;28;20366;-67
2022/04/06 12:13:20;;;;;;;4.45;3.20;;;12.00;99.90;;;;;;5030943;28;20519;-68
2022/04/06 12:15:48;;;;;;;2.03;1.40;;;12.00;99.90;;;;;;5030797;28;20547;-68
2022/04/06 12:18:18;;;;;;;2.22;1.10;;;11.90;99.90;;;;;;5030376;28;20053;-68
2022/04/06 12:20:46;;;;;;;1.88;1.30;;;11.70;99.90;;;;;;5031329;28;20192;-68
2022/04/06 12:23:13;;;;;;;2.13;1.75;;;11.70;99.90;;;;;;5030589;28;20065;-68
2022/04/06 12:25:39;;;;;;;6.90;4.10;;;11.80;99.90;;;;;;5030799;28;20124;-68
2022/04/06 12:28:26;;;;;;;14.93;10.85;;;11.90;99.90;;;;;;5030130;28;20049;-68
2022/04/06 12:30:57;;;;;;;6.78;4.60;;;12.00;99.90;;;;;;5030831;28;20041;-68
2022/04/06 12:33:35;;;;;;;3.70;3.20;;;12.20;99.90;;;;;;5034525;28;20045;-68
2022/04/06 12:36:15;;;;;;;2.13;1.20;;;12.30;99.90;;;;;;5032856;28;20057;-68
2022/04/06 12:38:42;;;;;;;;;;;12.20;99.90;;;;;;5030636;28;20036;-68
2022/04/06 12:41:13;;;;;;;10.00;4.07;;;12.30;99.90;;;;;;5030387;28;19963;-68
2022/04/06 12:43:45;;;;;;;;;;;12.40;99.90;;;;;;5031230;28;20044;-68
2022/04/06 12:46:11;;;;;;;2.50;1.20;;;12.20;99.90;;;;;;5030360;28;19913;-68
2022/04/06 12:48:37;;;;;;;1.05;0.98;;;12.20;99.90;;;;;;5038255;28;20509;-68
2022/04/06 12:51:22;;;;;;;2.00;1.30;;;12.40;99.90;;;;;;5051480;28;20079;-68
2022/04/06 12:53:52;;;;;;;5.00;1.30;;;12.30;99.90;;;;;;5050269;28;20064;-68
2022/04/06 12:56:27;;;;;;;2.65;1.25;;;12.40;99.90;;;;;;5050230;28;20341;-68
2022/04/06 12:59:09;;;;;;;2.08;1.40;;;12.60;99.90;;;;;;5034264;28;20041;-68
2022/04/06 13:01:46;;;;;;;3.22;1.23;;;12.90;99.90;;;;;;5052274;28;20124;-68
2022/04/06 13:04:12;;;;;;;2.30;1.20;;;13.00;99.90;;;;;;5035042;28;20048;-68
2022/04/06 13:06:37;;;;;;;2.08;1.05;;;13.10;99.90;;;;;;5032072;28;20038;-68